Arklow Spray — C6VK8 — position and weather

sailwx.info

Track history (hours):
 
Tides and Currents Weather Stations Pressure Air Temp Water Temp Dewpoint Dewpoint Depression Visibility Wind Speed Wind Dir Waves Ship Positions

Arklow Spray

Last reported at 2016-Sep-07 23:23 UTC. Time now 2016-Sep-28 10:15 UTC.
Position N 49°37' W 003°56'.
Warning: this ship's position is 20 days out of date.

Length 90 m; draft 4.7 m.

Type: Cargo ship. MMSI: 309914000.

Date/timePositionNaut miles runAvg speedWind from/ knotsBaromVisibWave heightAir tempDewpointWater temp
2016-Sep-07 23:23N 49°37' W 003°56'8 9.3
2016-Sep-07 22:33N 49°41' W 003°46'9 8.9
2016-Sep-07 21:33N 49°45' W 003°34'9 9.0
2016-Sep-07 20:33N 49°50' W 003°22'10 9.6
2016-Sep-07 19:33N 49°55' W 003°10'1110.6
2016-Sep-07 18:33N 49°59' W 002°55'1211.8
2016-Sep-07 17:33N 50°02' W 002°37'1312.7
2016-Sep-07 16:33N 50°06' W 002°18'1212.5
2016-Sep-07 15:33N 50°09' W 001°59'1311.1
2016-Sep-07 14:25N 50°12' W 001°40'11 9.4
2016-Sep-07 13:16N 50°15' W 001°24'6 8.2
2016-Sep-07 12:33N 50°17' W 001°15'7 7.4
2016-Sep-07 11:33N 50°19' W 001°04'7 7.5
2016-Sep-07 10:34N 50°21' W 000°53'9 8.6
2016-Sep-07 09:33N 50°23' W 000°40'10 9.8
2016-Sep-07 08:33N 50°26' W 000°25'1110.9
2016-Sep-07 07:33N 50°29' W 000°08'1111.3
2016-Sep-07 06:33N 50°32' E 000°09'4110.0
2016-Sep-07 02:29N 50°52' E 001°05'11 8.8
2016-Sep-07 01:12N 50°59' E 001°18'7 9.5
2016-Sep-07 00:29N 51°04' E 001°26'1111.8
2016-Sep-06 23:33N 51°11' E 001°40'1212.3
2016-Sep-06 22:33N 51°21' E 001°52'1211.7
2016-Sep-06 21:33N 51°30' E 002°03'1210.6
2016-Sep-06 20:25N 51°39' E 002°16'369 9.7
2016-Sep-05 06:13N 57°43' E 004°00'1710.0
2016-Sep-05 04:33N 58°00' E 003°60'1010.1
2016-Sep-05 03:33N 58°10' E 004°00'1010.1
2016-Sep-05 02:33N 58°20' E 003°60'298 8.4
2016-Sep-03 15:17N 63°05' E 006°58'5 7.0
2016-Sep-03 14:33N 63°08' E 007°08'8 7.9
2016-Sep-03 13:33N 63°13' E 007°22'8 7.7
2016-Sep-03 12:34N 63°15' E 007°38'8 8.1
2016-Sep-03 11:32N 63°07' E 007°46'0 0.0
2016-Sep-03 10:32N 63°07' E 007°47'1 0.7
2016-Sep-03 09:34N 63°08' E 007°47'6 6.3
2016-Sep-03 08:33N 63°02' E 007°51'5 4.5
2016-Sep-03 07:33N 62°59' E 007°59'  
Track history (hours):
 
Tides and Currents Weather Stations Pressure Air Temp Water Temp Dewpoint Dewpoint Depression Visibility Wind Speed Wind Dir Waves Ship Positions

Arklow Spray

Last reported at 2016-Sep-07 23:23 UTC. Time now 2016-Sep-28 10:15 UTC.
Position N 49°37' W 003°56'.
Warning: this ship's position is 20 days out of date.

Length 90 m; draft 4.7 m.

Type: Cargo ship. MMSI: 309914000.

Date/timePositionNaut miles runAvg speedWind from/ knotsBaromVisibWave heightAir tempDewpointWater temp
2016-Sep-07 23:23N 49°37' W 003°56'8 9.3
2016-Sep-07 22:33N 49°41' W 003°46'9 8.9
2016-Sep-07 21:33N 49°45' W 003°34'9 9.0
2016-Sep-07 20:33N 49°50' W 003°22'10 9.6
2016-Sep-07 19:33N 49°55' W 003°10'1110.6
2016-Sep-07 18:33N 49°59' W 002°55'1211.8
2016-Sep-07 17:33N 50°02' W 002°37'1312.7
2016-Sep-07 16:33N 50°06' W 002°18'1212.5
2016-Sep-07 15:33N 50°09' W 001°59'1311.1
2016-Sep-07 14:25N 50°12' W 001°40'11 9.4
2016-Sep-07 13:16N 50°15' W 001°24'6 8.2
2016-Sep-07 12:33N 50°17' W 001°15'7 7.4
2016-Sep-07 11:33N 50°19' W 001°04'7 7.5
2016-Sep-07 10:34N 50°21' W 000°53'9 8.6
2016-Sep-07 09:33N 50°23' W 000°40'10 9.8
2016-Sep-07 08:33N 50°26' W 000°25'1110.9
2016-Sep-07 07:33N 50°29' W 000°08'1111.3
2016-Sep-07 06:33N 50°32' E 000°09'4110.0
2016-Sep-07 02:29N 50°52' E 001°05'11 8.8
2016-Sep-07 01:12N 50°59' E 001°18'7 9.5
2016-Sep-07 00:29N 51°04' E 001°26'1111.8
2016-Sep-06 23:33N 51°11' E 001°40'1212.3
2016-Sep-06 22:33N 51°21' E 001°52'1211.7
2016-Sep-06 21:33N 51°30' E 002°03'1210.6
2016-Sep-06 20:25N 51°39' E 002°16'369 9.7
2016-Sep-05 06:13N 57°43' E 004°00'1710.0
2016-Sep-05 04:33N 58°00' E 003°60'1010.1
2016-Sep-05 03:33N 58°10' E 004°00'1010.1
2016-Sep-05 02:33N 58°20' E 003°60'298 8.4
2016-Sep-03 15:17N 63°05' E 006°58'5 7.0
2016-Sep-03 14:33N 63°08' E 007°08'8 7.9
2016-Sep-03 13:33N 63°13' E 007°22'8 7.7
2016-Sep-03 12:34N 63°15' E 007°38'8 8.1
2016-Sep-03 11:32N 63°07' E 007°46'0 0.0
2016-Sep-03 10:32N 63°07' E 007°47'1 0.7
2016-Sep-03 09:34N 63°08' E 007°47'6 6.3
2016-Sep-03 08:33N 63°02' E 007°51'5 4.5
2016-Sep-03 07:33N 62°59' E 007°59'  

Dump ship's entire track history